sensor_id;sensor_type;location;lat;lon;timestamp;P1;durP1;ratioP1;P2;durP2;ratioP2
54993;SDS011;40891;47.242;8.648;2022-07-03T00:00:16;2.90;;;2.10;;
54993;SDS011;40891;47.242;8.648;2022-07-03T00:02:42;4.60;;;1.73;;
54993;SDS011;40891;47.242;8.648;2022-07-03T00:05:07;7.05;;;2.05;;
54993;SDS011;40891;47.242;8.648;2022-07-03T00:07:33;4.35;;;2.00;;
54993;SDS011;40891;47.242;8.648;2022-07-03T00:09:58;4.43;;;2.15;;
54993;SDS011;40891;47.242;8.648;2022-07-03T00:12:23;4.13;;;2.15;;
54993;SDS011;40891;47.242;8.648;2022-07-03T00:14:49;2.25;;;1.98;;
54993;SDS011;40891;47.242;8.648;2022-07-03T00:17:16;3.85;;;2.40;;
54993;SDS011;40891;47.242;8.648;2022-07-03T00:19:41;3.53;;;2.25;;
54993;SDS011;40891;47.242;8.648;2022-07-03T00:22:07;2.10;;;1.90;;
54993;SDS011;40891;47.242;8.648;2022-07-03T00:24:42;2.67;;;1.88;;
54993;SDS011;40891;47.242;8.648;2022-07-03T00:27:19;3.55;;;2.30;;
54993;SDS011;40891;47.242;8.648;2022-07-03T00:29:46;2.20;;;1.90;;
54993;SDS011;40891;47.242;8.648;2022-07-03T00:32:15;4.97;;;2.40;;
54993;SDS011;40891;47.242;8.648;2022-07-03T00:34:45;4.10;;;2.47;;
54993;SDS011;40891;47.242;8.648;2022-07-03T00:37:12;5.95;;;2.50;;
54993;SDS011;40891;47.242;8.648;2022-07-03T00:39:39;5.00;;;2.40;;
54993;SDS011;40891;47.242;8.648;2022-07-03T00:42:06;6.57;;;2.53;;
54993;SDS011;40891;47.242;8.648;2022-07-03T00:44:34;6.38;;;2.47;;
54993;SDS011;40891;47.242;8.648;2022-07-03T00:47:07;5.85;;;2.55;;
54993;SDS011;40891;47.242;8.648;2022-07-03T00:49:33;3.53;;;2.28;;
54993;SDS011;40891;47.242;8.648;2022-07-03T00:52:02;3.90;;;2.50;;
54993;SDS011;40891;47.242;8.648;2022-07-03T00:54:29;6.40;;;2.42;;
54993;SDS011;40891;47.242;8.648;2022-07-03T00:56:58;3.75;;;2.15;;
54993;SDS011;40891;47.242;8.648;2022-07-03T00:59:24;5.65;;;2.03;;
54993;SDS011;40891;47.242;8.648;2022-07-03T01:01:52;4.38;;;2.17;;
54993;SDS011;40891;47.242;8.648;2022-07-03T01:04:36;3.25;;;2.15;;
54993;SDS011;40891;47.242;8.648;2022-07-03T01:07:33;2.40;;;2.20;;
54993;SDS011;40891;47.242;8.648;2022-07-03T01:15:05;2.35;;;2.03;;
54993;SDS011;40891;47.242;8.648;2022-07-03T01:17:39;4.43;;;2.10;;
54993;SDS011;40891;47.242;8.648;2022-07-03T01:20:11;4.43;;;2.22;;
54993;SDS011;40891;47.242;8.648;2022-07-03T01:22:37;5.63;;;2.20;;
54993;SDS011;40891;47.242;8.648;2022-07-03T01:30:22;4.10;;;2.10;;
54993;SDS011;40891;47.242;8.648;2022-07-03T01:32:50;3.63;;;1.80;;
54993;SDS011;40891;47.242;8.648;2022-07-03T01:35:26;5.93;;;2.05;;
54993;SDS011;40891;47.242;8.648;2022-07-03T01:37:56;2.88;;;1.88;;
54993;SDS011;40891;47.242;8.648;2022-07-03T01:40:27;3.08;;;2.28;;
54993;SDS011;40891;47.242;8.648;2022-07-03T01:42:53;3.13;;;2.13;;
54993;SDS011;40891;47.242;8.648;2022-07-03T01:45:21;4.57;;;2.00;;
54993;SDS011;40891;47.242;8.648;2022-07-03T01:47:51;2.53;;;2.20;;
54993;SDS011;40891;47.242;8.648;2022-07-03T01:50:17;3.70;;;2.35;;
54993;SDS011;40891;47.242;8.648;2022-07-03T01:52:46;3.17;;;1.88;;
54993;SDS011;40891;47.242;8.648;2022-07-03T01:55:14;3.47;;;2.20;;
54993;SDS011;40891;47.242;8.648;2022-07-03T01:57:43;4.15;;;2.15;;
54993;SDS011;40891;47.242;8.648;2022-07-03T02:00:13;3.92;;;2.50;;
54993;SDS011;40891;47.242;8.648;2022-07-03T02:02:43;2.65;;;2.00;;
54993;SDS011;40891;47.242;8.648;2022-07-03T02:05:26;4.07;;;2.25;;
54993;SDS011;40891;47.242;8.648;2022-07-03T02:10:46;8.13;;;2.33;;
54993;SDS011;40891;47.242;8.648;2022-07-03T02:13:37;3.78;;;2.20;;
54993;SDS011;40891;47.242;8.648;2022-07-03T02:16:07;5.18;;;2.15;;
54993;SDS011;40891;47.242;8.648;2022-07-03T02:18:36;2.90;;;2.00;;
54993;SDS011;40891;47.242;8.648;2022-07-03T02:23:47;2.70;;;2.22;;
54993;SDS011;40891;47.242;8.648;2022-07-03T02:26:37;3.35;;;2.20;;
54993;SDS011;40891;47.242;8.648;2022-07-03T02:29:05;3.05;;;2.20;;
54993;SDS011;40891;47.242;8.648;2022-07-03T02:31:37;2.50;;;1.95;;
54993;SDS011;40891;47.242;8.648;2022-07-03T02:34:06;2.78;;;1.80;;
54993;SDS011;40891;47.242;8.648;2022-07-03T02:36:33;2.55;;;1.73;;
54993;SDS011;40891;47.242;8.648;2022-07-03T02:39:00;2.05;;;1.85;;
54993;SDS011;40891;47.242;8.648;2022-07-03T02:41:37;2.33;;;2.08;;
54993;SDS011;40891;47.242;8.648;2022-07-03T02:44:51;2.08;;;1.85;;
54993;SDS011;40891;47.242;8.648;2022-07-03T02:50:06;6.65;;;2.03;;
54993;SDS011;40891;47.242;8.648;2022-07-03T02:58:00;2.85;;;2.00;;
54993;SDS011;40891;47.242;8.648;2022-07-03T03:00:26;4.80;;;2.15;;
54993;SDS011;40891;47.242;8.648;2022-07-03T03:02:58;2.30;;;2.10;;
54993;SDS011;40891;47.242;8.648;2022-07-03T03:10:36;5.82;;;2.05;;
54993;SDS011;40891;47.242;8.648;2022-07-03T03:13:06;4.45;;;1.85;;
54993;SDS011;40891;47.242;8.648;2022-07-03T03:15:35;4.57;;;2.00;;
54993;SDS011;40891;47.242;8.648;2022-07-03T03:18:02;3.73;;;1.80;;
54993;SDS011;40891;47.242;8.648;2022-07-03T03:20:31;2.17;;;1.67;;
54993;SDS011;40891;47.242;8.648;2022-07-03T03:25:38;2.07;;;1.70;;
54993;SDS011;40891;47.242;8.648;2022-07-03T03:28:03;3.50;;;1.87;;
54993;SDS011;40891;47.242;8.648;2022-07-03T03:30:29;4.30;;;2.20;;
54993;SDS011;40891;47.242;8.648;2022-07-03T03:32:55;2.17;;;2.03;;
54993;SDS011;40891;47.242;8.648;2022-07-03T03:35:21;5.67;;;2.20;;
54993;SDS011;40891;47.242;8.648;2022-07-03T03:37:46;4.37;;;2.20;;
54993;SDS011;40891;47.242;8.648;2022-07-03T03:40:17;4.93;;;1.97;;
54993;SDS011;40891;47.242;8.648;2022-07-03T03:42:43;5.97;;;2.00;;
54993;SDS011;40891;47.242;8.648;2022-07-03T03:45:08;3.60;;;2.15;;
54993;SDS011;40891;47.242;8.648;2022-07-03T03:47:34;2.63;;;2.17;;
54993;SDS011;40891;47.242;8.648;2022-07-03T03:50:00;2.83;;;2.63;;
54993;SDS011;40891;47.242;8.648;2022-07-03T03:52:27;3.17;;;2.47;;
54993;SDS011;40891;47.242;8.648;2022-07-03T03:54:53;6.70;;;2.47;;
54993;SDS011;40891;47.242;8.648;2022-07-03T03:57:23;5.17;;;2.57;;
54993;SDS011;40891;47.242;8.648;2022-07-03T03:59:50;2.70;;;2.30;;
54993;SDS011;40891;47.242;8.648;2022-07-03T04:02:16;3.20;;;2.53;;
54993;SDS011;40891;47.242;8.648;2022-07-03T04:04:42;2.67;;;2.23;;
54993;SDS011;40891;47.242;8.648;2022-07-03T04:07:09;3.17;;;2.23;;
54993;SDS011;40891;47.242;8.648;2022-07-03T04:09:34;4.53;;;2.30;;
54993;SDS011;40891;47.242;8.648;2022-07-03T04:12:00;3.67;;;2.22;;
54993;SDS011;40891;47.242;8.648;2022-07-03T04:14:26;3.10;;;2.40;;
54993;SDS011;40891;47.242;8.648;2022-07-03T04:16:51;3.00;;;2.45;;
54993;SDS011;40891;47.242;8.648;2022-07-03T04:19:17;3.58;;;2.35;;
54993;SDS011;40891;47.242;8.648;2022-07-03T04:21:42;3.55;;;2.30;;
54993;SDS011;40891;47.242;8.648;2022-07-03T04:24:07;2.92;;;1.95;;
54993;SDS011;40891;47.242;8.648;2022-07-03T04:26:33;5.38;;;2.60;;
54993;SDS011;40891;47.242;8.648;2022-07-03T04:28:58;5.43;;;2.05;;
54993;SDS011;40891;47.242;8.648;2022-07-03T04:31:23;3.15;;;2.30;;
54993;SDS011;40891;47.242;8.648;2022-07-03T04:33:49;2.92;;;1.80;;
54993;SDS011;40891;47.242;8.648;2022-07-03T04:36:14;5.68;;;2.13;;
54993;SDS011;40891;47.242;8.648;2022-07-03T04:38:40;4.22;;;2.05;;
54993;SDS011;40891;47.242;8.648;2022-07-03T04:41:06;3.10;;;1.88;;
54993;SDS011;40891;47.242;8.648;2022-07-03T04:43:31;5.18;;;2.05;;
54993;SDS011;40891;47.242;8.648;2022-07-03T04:45:57;2.53;;;2.03;;
54993;SDS011;40891;47.242;8.648;2022-07-03T04:48:22;2.85;;;1.70;;
54993;SDS011;40891;47.242;8.648;2022-07-03T04:50:47;4.50;;;1.80;;
54993;SDS011;40891;47.242;8.648;2022-07-03T04:53:12;2.25;;;1.50;;
54993;SDS011;40891;47.242;8.648;2022-07-03T04:55:38;2.38;;;1.70;;
54993;SDS011;40891;47.242;8.648;2022-07-03T04:58:03;1.55;;;1.45;;
54993;SDS011;40891;47.242;8.648;2022-07-03T05:00:28;3.65;;;1.58;;
54993;SDS011;40891;47.242;8.648;2022-07-03T05:02:54;3.20;;;1.60;;
54993;SDS011;40891;47.242;8.648;2022-07-03T05:05:19;4.30;;;1.60;;
54993;SDS011;40891;47.242;8.648;2022-07-03T05:07:45;1.92;;;1.48;;
54993;SDS011;40891;47.242;8.648;2022-07-03T05:10:10;1.88;;;1.50;;
54993;SDS011;40891;47.242;8.648;2022-07-03T05:12:36;2.33;;;1.55;;
54993;SDS011;40891;47.242;8.648;2022-07-03T05:15:01;1.92;;;1.20;;
54993;SDS011;40891;47.242;8.648;2022-07-03T05:17:26;4.85;;;1.40;;
54993;SDS011;40891;47.242;8.648;2022-07-03T05:19:52;1.60;;;1.20;;
54993;SDS011;40891;47.242;8.648;2022-07-03T05:22:38;4.05;;;1.40;;
54993;SDS011;40891;47.242;8.648;2022-07-03T05:25:03;3.17;;;1.48;;
54993;SDS011;40891;47.242;8.648;2022-07-03T05:27:29;1.92;;;1.30;;
54993;SDS011;40891;47.242;8.648;2022-07-03T05:29:54;3.28;;;1.50;;
54993;SDS011;40891;47.242;8.648;2022-07-03T05:32:20;3.60;;;1.48;;
54993;SDS011;40891;47.242;8.648;2022-07-03T05:34:45;1.30;;;1.20;;
54993;SDS011;40891;47.242;8.648;2022-07-03T05:37:10;1.70;;;1.23;;
54993;SDS011;40891;47.242;8.648;2022-07-03T05:39:36;1.95;;;1.60;;
54993;SDS011;40891;47.242;8.648;2022-07-03T05:42:03;2.78;;;1.70;;
54993;SDS011;40891;47.242;8.648;2022-07-03T05:44:29;2.45;;;2.05;;
54993;SDS011;40891;47.242;8.648;2022-07-03T05:46:55;4.03;;;2.00;;
54993;SDS011;40891;47.242;8.648;2022-07-03T05:49:20;2.10;;;1.90;;
54993;SDS011;40891;47.242;8.648;2022-07-03T05:51:46;3.08;;;2.33;;
54993;SDS011;40891;47.242;8.648;2022-07-03T05:54:11;2.83;;;2.00;;
54993;SDS011;40891;47.242;8.648;2022-07-03T05:56:36;3.40;;;2.00;;
54993;SDS011;40891;47.242;8.648;2022-07-03T05:59:02;3.55;;;2.13;;
54993;SDS011;40891;47.242;8.648;2022-07-03T06:01:27;3.55;;;2.22;;
54993;SDS011;40891;47.242;8.648;2022-07-03T06:03:52;6.00;;;2.00;;
54993;SDS011;40891;47.242;8.648;2022-07-03T06:06:18;3.45;;;2.13;;
54993;SDS011;40891;47.242;8.648;2022-07-03T06:08:43;2.92;;;2.10;;
54993;SDS011;40891;47.242;8.648;2022-07-03T06:11:08;3.22;;;1.90;;
54993;SDS011;40891;47.242;8.648;2022-07-03T06:13:34;4.15;;;1.80;;
54993;SDS011;40891;47.242;8.648;2022-07-03T06:15:59;3.05;;;1.85;;
54993;SDS011;40891;47.242;8.648;2022-07-03T06:18:25;4.72;;;1.90;;
54993;SDS011;40891;47.242;8.648;2022-07-03T06:20:50;5.97;;;2.00;;
54993;SDS011;40891;47.242;8.648;2022-07-03T06:23:16;2.40;;;2.03;;
54993;SDS011;40891;47.242;8.648;2022-07-03T06:25:41;5.82;;;2.22;;
54993;SDS011;40891;47.242;8.648;2022-07-03T06:28:06;3.55;;;2.08;;
54993;SDS011;40891;47.242;8.648;2022-07-03T06:30:32;3.97;;;2.08;;
54993;SDS011;40891;47.242;8.648;2022-07-03T06:32:57;3.97;;;1.70;;
54993;SDS011;40891;47.242;8.648;2022-07-03T06:35:22;1.88;;;1.63;;
54993;SDS011;40891;47.242;8.648;2022-07-03T06:37:48;2.67;;;2.03;;
54993;SDS011;40891;47.242;8.648;2022-07-03T06:40:13;2.08;;;1.80;;
54993;SDS011;40891;47.242;8.648;2022-07-03T06:42:39;2.60;;;1.92;;
54993;SDS011;40891;47.242;8.648;2022-07-03T06:45:04;3.65;;;1.77;;
54993;SDS011;40891;47.242;8.648;2022-07-03T06:47:30;4.03;;;1.90;;
54993;SDS011;40891;47.242;8.648;2022-07-03T06:49:55;5.90;;;2.30;;
54993;SDS011;40891;47.242;8.648;2022-07-03T06:52:20;3.05;;;1.83;;
54993;SDS011;40891;47.242;8.648;2022-07-03T06:54:46;6.75;;;2.00;;
54993;SDS011;40891;47.242;8.648;2022-07-03T06:57:11;2.90;;;1.70;;
54993;SDS011;40891;47.242;8.648;2022-07-03T06:59:37;2.63;;;1.80;;
54993;SDS011;40891;47.242;8.648;2022-07-03T07:02:03;2.95;;;1.75;;
54993;SDS011;40891;47.242;8.648;2022-07-03T07:04:29;4.40;;;1.67;;
54993;SDS011;40891;47.242;8.648;2022-07-03T07:06:54;2.85;;;1.80;;
54993;SDS011;40891;47.242;8.648;2022-07-03T07:09:19;6.05;;;1.83;;
54993;SDS011;40891;47.242;8.648;2022-07-03T07:11:45;2.10;;;1.67;;
54993;SDS011;40891;47.242;8.648;2022-07-03T07:14:10;4.85;;;1.80;;
54993;SDS011;40891;47.242;8.648;2022-07-03T07:16:35;2.35;;;1.83;;
54993;SDS011;40891;47.242;8.648;2022-07-03T07:19:01;1.80;;;1.60;;
54993;SDS011;40891;47.242;8.648;2022-07-03T07:21:26;2.53;;;1.70;;
54993;SDS011;40891;47.242;8.648;2022-07-03T07:23:52;4.07;;;1.40;;
54993;SDS011;40891;47.242;8.648;2022-07-03T07:26:17;2.05;;;1.80;;
54993;SDS011;40891;47.242;8.648;2022-07-03T07:28:45;2.00;;;1.35;;
54993;SDS011;40891;47.242;8.648;2022-07-03T07:31:10;2.58;;;1.67;;
54993;SDS011;40891;47.242;8.648;2022-07-03T07:33:36;2.33;;;1.40;;
54993;SDS011;40891;47.242;8.648;2022-07-03T07:36:01;1.40;;;1.27;;
54993;SDS011;40891;47.242;8.648;2022-07-03T07:38:26;1.52;;;1.30;;
54993;SDS011;40891;47.242;8.648;2022-07-03T07:40:52;4.88;;;1.63;;
54993;SDS011;40891;47.242;8.648;2022-07-03T07:43:17;1.95;;;1.40;;
54993;SDS011;40891;47.242;8.648;2022-07-03T07:45:43;3.88;;;1.38;;
54993;SDS011;40891;47.242;8.648;2022-07-03T07:48:08;2.15;;;1.30;;
54993;SDS011;40891;47.242;8.648;2022-07-03T07:50:33;5.82;;;1.38;;
54993;SDS011;40891;47.242;8.648;2022-07-03T07:52:59;1.70;;;1.20;;
54993;SDS011;40891;47.242;8.648;2022-07-03T07:55:25;4.00;;;1.17;;
54993;SDS011;40891;47.242;8.648;2022-07-03T07:57:50;2.25;;;1.58;;
54993;SDS011;40891;47.242;8.648;2022-07-03T08:00:17;2.42;;;1.40;;
54993;SDS011;40891;47.242;8.648;2022-07-03T08:02:44;1.50;;;1.40;;
54993;SDS011;40891;47.242;8.648;2022-07-03T08:05:29;1.70;;;1.50;;
54993;SDS011;40891;47.242;8.648;2022-07-03T08:08:22;3.78;;;1.30;;
54993;SDS011;40891;47.242;8.648;2022-07-03T08:10:48;1.98;;;1.58;;
54993;SDS011;40891;47.242;8.648;2022-07-03T08:13:16;1.77;;;1.20;;
54993;SDS011;40891;47.242;8.648;2022-07-03T08:15:43;1.50;;;1.38;;
54993;SDS011;40891;47.242;8.648;2022-07-03T08:18:10;4.43;;;1.52;;
54993;SDS011;40891;47.242;8.648;2022-07-03T08:20:36;5.72;;;1.38;;
54993;SDS011;40891;47.242;8.648;2022-07-03T08:23:02;1.85;;;1.30;;
54993;SDS011;40891;47.242;8.648;2022-07-03T08:25:28;2.33;;;1.40;;
54993;SDS011;40891;47.242;8.648;2022-07-03T08:27:55;2.22;;;1.05;;
54993;SDS011;40891;47.242;8.648;2022-07-03T08:30:21;2.30;;;1.60;;
54993;SDS011;40891;47.242;8.648;2022-07-03T08:32:51;2.63;;;1.25;;
54993;SDS011;40891;47.242;8.648;2022-07-03T08:35:18;2.35;;;1.35;;
54993;SDS011;40891;47.242;8.648;2022-07-03T08:37:44;1.45;;;1.23;;
54993;SDS011;40891;47.242;8.648;2022-07-03T08:40:11;1.45;;;1.20;;
54993;SDS011;40891;47.242;8.648;2022-07-03T08:42:39;1.85;;;1.23;;
54993;SDS011;40891;47.242;8.648;2022-07-03T08:45:12;2.78;;;1.40;;
54993;SDS011;40891;47.242;8.648;2022-07-03T08:47:43;1.77;;;1.30;;
54993;SDS011;40891;47.242;8.648;2022-07-03T08:50:12;2.17;;;1.40;;
54993;SDS011;40891;47.242;8.648;2022-07-03T08:52:39;1.58;;;1.23;;
54993;SDS011;40891;47.242;8.648;2022-07-03T08:55:05;1.55;;;1.20;;
54993;SDS011;40891;47.242;8.648;2022-07-03T08:57:31;2.67;;;1.10;;
54993;SDS011;40891;47.242;8.648;2022-07-03T09:00:00;2.05;;;1.20;;
54993;SDS011;40891;47.242;8.648;2022-07-03T09:02:28;3.08;;;1.08;;
54993;SDS011;40891;47.242;8.648;2022-07-03T09:04:56;1.52;;;0.90;;
54993;SDS011;40891;47.242;8.648;2022-07-03T09:07:23;1.40;;;1.00;;
54993;SDS011;40891;47.242;8.648;2022-07-03T09:09:50;3.10;;;1.40;;
54993;SDS011;40891;47.242;8.648;2022-07-03T09:12:16;1.35;;;1.00;;
54993;SDS011;40891;47.242;8.648;2022-07-03T09:14:42;1.40;;;1.05;;
54993;SDS011;40891;47.242;8.648;2022-07-03T09:17:09;2.70;;;1.02;;
54993;SDS011;40891;47.242;8.648;2022-07-03T09:19:42;1.77;;;1.30;;
54993;SDS011;40891;47.242;8.648;2022-07-03T09:22:30;1.17;;;0.85;;
54993;SDS011;40891;47.242;8.648;2022-07-03T09:25:06;4.80;;;0.90;;
54993;SDS011;40891;47.242;8.648;2022-07-03T09:27:34;2.55;;;1.10;;
54993;SDS011;40891;47.242;8.648;2022-07-03T09:30:03;1.35;;;0.90;;
54993;SDS011;40891;47.242;8.648;2022-07-03T09:32:30;1.10;;;0.98;;
54993;SDS011;40891;47.242;8.648;2022-07-03T09:37:54;1.30;;;1.05;;
54993;SDS011;40891;47.242;8.648;2022-07-03T09:40:19;2.63;;;1.00;;
54993;SDS011;40891;47.242;8.648;2022-07-03T09:45:47;1.30;;;1.20;;
54993;SDS011;40891;47.242;8.648;2022-07-03T09:48:21;2.25;;;1.20;;
54993;SDS011;40891;47.242;8.648;2022-07-03T09:53:46;0.95;;;0.82;;
54993;SDS011;40891;47.242;8.648;2022-07-03T09:56:11;1.10;;;1.00;;
54993;SDS011;40891;47.242;8.648;2022-07-03T09:58:37;2.00;;;1.08;;
54993;SDS011;40891;47.242;8.648;2022-07-03T10:01:19;1.35;;;1.10;;
54993;SDS011;40891;47.242;8.648;2022-07-03T10:03:46;1.50;;;1.00;;
54993;SDS011;40891;47.242;8.648;2022-07-03T10:06:13;1.65;;;1.00;;
54993;SDS011;40891;47.242;8.648;2022-07-03T10:08:39;0.80;;;0.80;;
54993;SDS011;40891;47.242;8.648;2022-07-03T10:11:04;1.23;;;0.57;;
54993;SDS011;40891;47.242;8.648;2022-07-03T10:13:30;1.10;;;0.70;;
54993;SDS011;40891;47.242;8.648;2022-07-03T10:15:58;2.60;;;0.63;;
54993;SDS011;40891;47.242;8.648;2022-07-03T10:18:26;3.78;;;0.80;;
54993;SDS011;40891;47.242;8.648;2022-07-03T10:20:56;2.13;;;0.90;;
54993;SDS011;40891;47.242;8.648;2022-07-03T10:23:23;4.93;;;1.02;;
54993;SDS011;40891;47.242;8.648;2022-07-03T10:25:49;4.80;;;0.90;;
54993;SDS011;40891;47.242;8.648;2022-07-03T10:28:15;1.80;;;0.80;;
54993;SDS011;40891;47.242;8.648;2022-07-03T10:30:46;1.58;;;0.82;;
54993;SDS011;40891;47.242;8.648;2022-07-03T10:33:12;2.40;;;0.70;;
54993;SDS011;40891;47.242;8.648;2022-07-03T10:35:38;2.47;;;0.80;;
54993;SDS011;40891;47.242;8.648;2022-07-03T10:43:44;1.55;;;1.00;;
54993;SDS011;40891;47.242;8.648;2022-07-03T10:46:33;6.47;;;1.00;;
54993;SDS011;40891;47.242;8.648;2022-07-03T10:49:05;2.35;;;1.05;;
54993;SDS011;40891;47.242;8.648;2022-07-03T11:26:02;1.52;;;0.88;;
54993;SDS011;40891;47.242;8.648;2022-07-03T11:36:06;0.88;;;0.70;;
54993;SDS011;40891;47.242;8.648;2022-07-03T11:41:28;3.13;;;1.10;;
54993;SDS011;40891;47.242;8.648;2022-07-03T11:43:56;1.30;;;0.80;;
54993;SDS011;40891;47.242;8.648;2022-07-03T11:48:49;1.60;;;0.77;;
54993;SDS011;40891;47.242;8.648;2022-07-03T11:51:15;1.10;;;1.00;;
54993;SDS011;40891;47.242;8.648;2022-07-03T11:53:41;3.33;;;0.80;;
54993;SDS011;40891;47.242;8.648;2022-07-03T12:01:07;1.23;;;0.90;;
54993;SDS011;40891;47.242;8.648;2022-07-03T12:03:36;1.05;;;0.70;;
54993;SDS011;40891;47.242;8.648;2022-07-03T12:06:02;0.57;;;0.57;;
54993;SDS011;40891;47.242;8.648;2022-07-03T12:08:31;1.63;;;0.60;;
54993;SDS011;40891;47.242;8.648;2022-07-03T12:10:58;1.33;;;0.65;;
54993;SDS011;40891;47.242;8.648;2022-07-03T12:13:28;2.25;;;0.70;;
54993;SDS011;40891;47.242;8.648;2022-07-03T12:16:08;0.90;;;0.70;;
54993;SDS011;40891;47.242;8.648;2022-07-03T12:18:42;0.95;;;0.70;;
54993;SDS011;40891;47.242;8.648;2022-07-03T12:21:11;1.67;;;0.80;;
54993;SDS011;40891;47.242;8.648;2022-07-03T12:23:48;4.97;;;1.00;;
54993;SDS011;40891;47.242;8.648;2022-07-03T12:26:32;0.77;;;0.70;;
54993;SDS011;40891;47.242;8.648;2022-07-03T12:28:58;1.73;;;0.70;;
54993;SDS011;40891;47.242;8.648;2022-07-03T12:31:26;4.35;;;0.80;;
54993;SDS011;40891;47.242;8.648;2022-07-03T12:33:53;1.65;;;0.95;;
54993;SDS011;40891;47.242;8.648;2022-07-03T12:36:19;1.92;;;0.63;;
54993;SDS011;40891;47.242;8.648;2022-07-03T12:38:48;1.65;;;0.80;;
54993;SDS011;40891;47.242;8.648;2022-07-03T12:41:16;0.80;;;0.60;;
54993;SDS011;40891;47.242;8.648;2022-07-03T12:43:42;1.50;;;0.70;;
54993;SDS011;40891;47.242;8.648;2022-07-03T12:48:57;1.50;;;0.88;;
54993;SDS011;40891;47.242;8.648;2022-07-03T12:51:44;1.67;;;0.90;;
54993;SDS011;40891;47.242;8.648;2022-07-03T12:56:37;0.90;;;0.70;;
54993;SDS011;40891;47.242;8.648;2022-07-03T12:59:04;1.65;;;0.80;;
54993;SDS011;40891;47.242;8.648;2022-07-03T13:01:42;1.85;;;0.90;;
54993;SDS011;40891;47.242;8.648;2022-07-03T13:04:08;4.07;;;1.00;;
54993;SDS011;40891;47.242;8.648;2022-07-03T13:06:34;1.27;;;0.80;;
54993;SDS011;40891;47.242;8.648;2022-07-03T13:09:04;2.75;;;0.80;;
54993;SDS011;40891;47.242;8.648;2022-07-03T13:11:40;3.33;;;0.90;;
54993;SDS011;40891;47.242;8.648;2022-07-03T13:14:13;2.00;;;0.90;;
54993;SDS011;40891;47.242;8.648;2022-07-03T13:19:12;1.95;;;0.80;;
54993;SDS011;40891;47.242;8.648;2022-07-03T13:21:39;3.10;;;0.90;;
54993;SDS011;40891;47.242;8.648;2022-07-03T13:24:05;1.73;;;0.77;;
54993;SDS011;40891;47.242;8.648;2022-07-03T13:26:31;2.17;;;0.70;;
54993;SDS011;40891;47.242;8.648;2022-07-03T13:28:57;6.43;;;1.08;;
54993;SDS011;40891;47.242;8.648;2022-07-03T13:31:22;1.40;;;0.98;;
54993;SDS011;40891;47.242;8.648;2022-07-03T13:33:47;1.42;;;0.70;;
54993;SDS011;40891;47.242;8.648;2022-07-03T13:36:13;0.98;;;0.85;;
54993;SDS011;40891;47.242;8.648;2022-07-03T13:38:38;2.67;;;0.80;;
54993;SDS011;40891;47.242;8.648;2022-07-03T13:41:03;2.55;;;0.80;;
54993;SDS011;40891;47.242;8.648;2022-07-03T13:43:29;1.45;;;0.80;;
54993;SDS011;40891;47.242;8.648;2022-07-03T13:45:54;1.88;;;0.90;;
54993;SDS011;40891;47.242;8.648;2022-07-03T13:48:19;1.50;;;0.70;;
54993;SDS011;40891;47.242;8.648;2022-07-03T13:50:45;1.80;;;0.95;;
54993;SDS011;40891;47.242;8.648;2022-07-03T13:53:11;1.58;;;0.75;;
54993;SDS011;40891;47.242;8.648;2022-07-03T13:55:38;2.30;;;1.00;;
54993;SDS011;40891;47.242;8.648;2022-07-03T13:58:05;0.95;;;0.77;;
54993;SDS011;40891;47.242;8.648;2022-07-03T14:00:32;2.45;;;0.90;;
54993;SDS011;40891;47.242;8.648;2022-07-03T14:02:58;1.23;;;0.80;;
54993;SDS011;40891;47.242;8.648;2022-07-03T14:05:23;2.15;;;0.82;;
54993;SDS011;40891;47.242;8.648;2022-07-03T14:07:48;4.03;;;0.80;;
54993;SDS011;40891;47.242;8.648;2022-07-03T14:10:14;1.65;;;0.82;;
54993;SDS011;40891;47.242;8.648;2022-07-03T14:12:40;1.00;;;0.73;;
54993;SDS011;40891;47.242;8.648;2022-07-03T14:15:05;2.13;;;0.75;;
54993;SDS011;40891;47.242;8.648;2022-07-03T14:17:31;1.20;;;0.88;;
54993;SDS011;40891;47.242;8.648;2022-07-03T14:19:56;1.55;;;0.93;;
54993;SDS011;40891;47.242;8.648;2022-07-03T14:22:22;0.75;;;0.65;;
54993;SDS011;40891;47.242;8.648;2022-07-03T14:24:47;1.08;;;0.93;;
54993;SDS011;40891;47.242;8.648;2022-07-03T14:27:12;2.25;;;0.93;;
54993;SDS011;40891;47.242;8.648;2022-07-03T14:29:56;3.10;;;0.80;;
54993;SDS011;40891;47.242;8.648;2022-07-03T14:32:40;2.33;;;1.15;;
54993;SDS011;40891;47.242;8.648;2022-07-03T14:35:06;2.85;;;0.70;;
54993;SDS011;40891;47.242;8.648;2022-07-03T14:37:32;2.83;;;0.90;;
54993;SDS011;40891;47.242;8.648;2022-07-03T14:39:58;1.08;;;0.80;;
54993;SDS011;40891;47.242;8.648;2022-07-03T14:42:23;3.45;;;1.00;;
54993;SDS011;40891;47.242;8.648;2022-07-03T14:44:49;1.20;;;0.90;;
54993;SDS011;40891;47.242;8.648;2022-07-03T14:47:14;1.75;;;0.80;;
54993;SDS011;40891;47.242;8.648;2022-07-03T14:49:40;5.38;;;0.80;;
54993;SDS011;40891;47.242;8.648;2022-07-03T14:52:06;3.15;;;1.10;;
54993;SDS011;40891;47.242;8.648;2022-07-03T14:54:32;2.40;;;1.00;;
54993;SDS011;40891;47.242;8.648;2022-07-03T14:57:01;3.03;;;1.23;;
54993;SDS011;40891;47.242;8.648;2022-07-03T14:59:32;3.10;;;1.00;;
54993;SDS011;40891;47.242;8.648;2022-07-03T15:02:04;1.67;;;0.80;;
54993;SDS011;40891;47.242;8.648;2022-07-03T15:04:37;3.00;;;1.20;;
54993;SDS011;40891;47.242;8.648;2022-07-03T15:07:32;2.88;;;0.90;;
54993;SDS011;40891;47.242;8.648;2022-07-03T15:10:05;3.30;;;1.10;;
54993;SDS011;40891;47.242;8.648;2022-07-03T15:12:32;1.95;;;0.95;;
54993;SDS011;40891;47.242;8.648;2022-07-03T15:14:59;1.30;;;1.20;;
54993;SDS011;40891;47.242;8.648;2022-07-03T15:17:26;1.73;;;1.15;;
54993;SDS011;40891;47.242;8.648;2022-07-03T15:19:52;2.25;;;1.13;;
54993;SDS011;40891;47.242;8.648;2022-07-03T15:22:19;2.35;;;0.90;;
54993;SDS011;40891;47.242;8.648;2022-07-03T15:24:50;2.47;;;1.17;;
54993;SDS011;40891;47.242;8.648;2022-07-03T15:27:21;3.08;;;1.13;;
54993;SDS011;40891;47.242;8.648;2022-07-03T15:29:48;3.35;;;0.80;;
54993;SDS011;40891;47.242;8.648;2022-07-03T15:32:14;1.25;;;0.70;;
54993;SDS011;40891;47.242;8.648;2022-07-03T15:34:41;1.67;;;1.00;;
54993;SDS011;40891;47.242;8.648;2022-07-03T15:40:05;2.60;;;2.05;;
54993;SDS011;40891;47.242;8.648;2022-07-03T15:53:27;0.90;;;0.82;;
54993;SDS011;40891;47.242;8.648;2022-07-03T15:55:56;2.55;;;1.00;;
54993;SDS011;40891;47.242;8.648;2022-07-03T15:58:31;1.65;;;1.08;;
54993;SDS011;40891;47.242;8.648;2022-07-03T16:00:58;1.73;;;0.90;;
54993;SDS011;40891;47.242;8.648;2022-07-03T16:04:06;4.72;;;1.10;;
54993;SDS011;40891;47.242;8.648;2022-07-03T16:06:34;1.63;;;0.95;;
54993;SDS011;40891;47.242;8.648;2022-07-03T16:09:03;3.05;;;0.95;;
54993;SDS011;40891;47.242;8.648;2022-07-03T16:11:29;1.52;;;0.93;;
54993;SDS011;40891;47.242;8.648;2022-07-03T16:13:55;2.05;;;0.95;;
54993;SDS011;40891;47.242;8.648;2022-07-03T16:16:23;5.57;;;1.05;;
54993;SDS011;40891;47.242;8.648;2022-07-03T16:18:51;1.60;;;1.10;;
54993;SDS011;40891;47.242;8.648;2022-07-03T16:21:18;2.15;;;1.10;;
54993;SDS011;40891;47.242;8.648;2022-07-03T16:23:47;3.10;;;1.15;;
54993;SDS011;40891;47.242;8.648;2022-07-03T16:26:13;4.22;;;1.20;;
54993;SDS011;40891;47.242;8.648;2022-07-03T16:28:39;2.58;;;0.90;;
54993;SDS011;40891;47.242;8.648;2022-07-03T16:31:05;3.38;;;0.93;;
54993;SDS011;40891;47.242;8.648;2022-07-03T16:33:32;2.15;;;1.00;;
54993;SDS011;40891;47.242;8.648;2022-07-03T16:36:00;2.65;;;1.00;;
54993;SDS011;40891;47.242;8.648;2022-07-03T16:38:34;2.08;;;1.25;;
54993;SDS011;40891;47.242;8.648;2022-07-03T16:41:04;3.47;;;1.10;;
54993;SDS011;40891;47.242;8.648;2022-07-03T16:43:31;1.83;;;1.15;;
54993;SDS011;40891;47.242;8.648;2022-07-03T16:46:02;1.83;;;1.10;;
54993;SDS011;40891;47.242;8.648;2022-07-03T16:48:32;6.80;;;1.38;;
54993;SDS011;40891;47.242;8.648;2022-07-03T16:51:03;5.38;;;1.30;;
54993;SDS011;40891;47.242;8.648;2022-07-03T16:53:32;3.50;;;1.33;;